sensor_id;sensor_type;location;lat;lon;timestamp;temperature;humidity
8178;DHT22;4130;48.740;9.132;2023-07-08T00:00:10;18.00;79.20
8178;DHT22;4130;48.740;9.132;2023-07-08T00:02:37;18.10;79.20
8178;DHT22;4130;48.740;9.132;2023-07-08T00:05:04;18.10;79.00
8178;DHT22;4130;48.740;9.132;2023-07-08T00:07:33;18.10;79.00
8178;DHT22;4130;48.740;9.132;2023-07-08T00:09:59;18.10;78.70
8178;DHT22;4130;48.740;9.132;2023-07-08T00:12:26;18.10;78.30
8178;DHT22;4130;48.740;9.132;2023-07-08T00:14:53;18.20;78.20
8178;DHT22;4130;48.740;9.132;2023-07-08T00:17:20;18.20;78.90
8178;DHT22;4130;48.740;9.132;2023-07-08T00:19:46;18.20;78.70
8178;DHT22;4130;48.740;9.132;2023-07-08T00:22:14;18.10;78.90
8178;DHT22;4130;48.740;9.132;2023-07-08T00:24:43;18.10;79.00
8178;DHT22;4130;48.740;9.132;2023-07-08T00:27:11;18.10;79.20
8178;DHT22;4130;48.740;9.132;2023-07-08T00:29:38;18.00;79.60
8178;DHT22;4130;48.740;9.132;2023-07-08T00:32:10;17.90;79.50
8178;DHT22;4130;48.740;9.132;2023-07-08T00:34:38;17.90;79.60
8178;DHT22;4130;48.740;9.132;2023-07-08T00:37:05;17.80;79.90
8178;DHT22;4130;48.740;9.132;2023-07-08T00:39:31;17.80;79.90
8178;DHT22;4130;48.740;9.132;2023-07-08T00:42:00;17.70;80.00
8178;DHT22;4130;48.740;9.132;2023-07-08T00:44:28;17.70;80.20
8178;DHT22;4130;48.740;9.132;2023-07-08T00:47:01;17.70;79.80
8178;DHT22;4130;48.740;9.132;2023-07-08T00:49:35;17.70;80.00
8178;DHT22;4130;48.740;9.132;2023-07-08T00:52:17;17.70;80.20
8178;DHT22;4130;48.740;9.132;2023-07-08T00:54:45;17.70;80.60
8178;DHT22;4130;48.740;9.132;2023-07-08T00:57:13;17.60;80.20
8178;DHT22;4130;48.740;9.132;2023-07-08T00:59:44;17.60;80.50
8178;DHT22;4130;48.740;9.132;2023-07-08T01:02:14;17.60;80.60
8178;DHT22;4130;48.740;9.132;2023-07-08T01:04:49;17.70;80.80
8178;DHT22;4130;48.740;9.132;2023-07-08T01:07:21;17.50;80.80
8178;DHT22;4130;48.740;9.132;2023-07-08T01:09:52;17.40;81.40
8178;DHT22;4130;48.740;9.132;2023-07-08T01:12:27;17.40;81.70
8178;DHT22;4130;48.740;9.132;2023-07-08T01:14:59;17.20;81.50
8178;DHT22;4130;48.740;9.132;2023-07-08T01:17:28;17.20;81.80
8178;DHT22;4130;48.740;9.132;2023-07-08T01:19:58;17.10;81.50
8178;DHT22;4130;48.740;9.132;2023-07-08T01:22:26;17.00;81.60
8178;DHT22;4130;48.740;9.132;2023-07-08T01:24:58;17.00;81.80
8178;DHT22;4130;48.740;9.132;2023-07-08T01:27:30;16.90;81.90
8178;DHT22;4130;48.740;9.132;2023-07-08T01:29:58;16.90;82.50
8178;DHT22;4130;48.740;9.132;2023-07-08T01:32:24;16.80;82.70
8178;DHT22;4130;48.740;9.132;2023-07-08T01:34:52;16.70;82.80
8178;DHT22;4130;48.740;9.132;2023-07-08T01:37:29;16.70;83.20
8178;DHT22;4130;48.740;9.132;2023-07-08T01:39:57;16.70;83.50
8178;DHT22;4130;48.740;9.132;2023-07-08T01:42:24;16.70;83.60
8178;DHT22;4130;48.740;9.132;2023-07-08T01:44:51;16.70;83.60
8178;DHT22;4130;48.740;9.132;2023-07-08T01:47:20;16.70;83.70
8178;DHT22;4130;48.740;9.132;2023-07-08T01:49:48;16.60;83.40
8178;DHT22;4130;48.740;9.132;2023-07-08T01:52:16;16.60;83.50
8178;DHT22;4130;48.740;9.132;2023-07-08T01:54:45;16.50;83.60
8178;DHT22;4130;48.740;9.132;2023-07-08T01:57:12;16.50;84.00
8178;DHT22;4130;48.740;9.132;2023-07-08T01:59:38;16.50;84.40
8178;DHT22;4130;48.740;9.132;2023-07-08T02:02:05;16.50;84.90
8178;DHT22;4130;48.740;9.132;2023-07-08T02:04:32;16.40;84.90
8178;DHT22;4130;48.740;9.132;2023-07-08T02:06:59;16.40;84.50
8178;DHT22;4130;48.740;9.132;2023-07-08T02:09:26;16.30;84.80
8178;DHT22;4130;48.740;9.132;2023-07-08T02:11:55;16.30;85.30
8178;DHT22;4130;48.740;9.132;2023-07-08T02:14:22;16.30;85.20
8178;DHT22;4130;48.740;9.132;2023-07-08T02:16:49;16.30;85.10
8178;DHT22;4130;48.740;9.132;2023-07-08T02:19:15;16.20;85.50
8178;DHT22;4130;48.740;9.132;2023-07-08T02:21:42;16.10;85.70
8178;DHT22;4130;48.740;9.132;2023-07-08T02:24:09;16.10;86.00
8178;DHT22;4130;48.740;9.132;2023-07-08T02:26:35;16.10;85.90
8178;DHT22;4130;48.740;9.132;2023-07-08T02:29:04;16.10;86.10
8178;DHT22;4130;48.740;9.132;2023-07-08T02:31:30;16.10;86.40
8178;DHT22;4130;48.740;9.132;2023-07-08T02:33:57;16.10;86.30
8178;DHT22;4130;48.740;9.132;2023-07-08T02:36:24;16.10;86.30
8178;DHT22;4130;48.740;9.132;2023-07-08T02:38:51;16.10;86.70
8178;DHT22;4130;48.740;9.132;2023-07-08T02:41:18;16.10;87.50
8178;DHT22;4130;48.740;9.132;2023-07-08T02:43:44;16.20;86.90
8178;DHT22;4130;48.740;9.132;2023-07-08T02:46:12;16.20;87.00
8178;DHT22;4130;48.740;9.132;2023-07-08T02:48:39;16.30;87.30
8178;DHT22;4130;48.740;9.132;2023-07-08T02:51:06;16.40;86.80
8178;DHT22;4130;48.740;9.132;2023-07-08T02:53:34;16.40;87.00
8178;DHT22;4130;48.740;9.132;2023-07-08T02:56:01;16.50;87.10
8178;DHT22;4130;48.740;9.132;2023-07-08T02:58:28;16.60;87.60
8178;DHT22;4130;48.740;9.132;2023-07-08T03:00:56;16.60;87.20
8178;DHT22;4130;48.740;9.132;2023-07-08T03:03:25;16.70;85.90
8178;DHT22;4130;48.740;9.132;2023-07-08T03:05:55;16.70;84.90
8178;DHT22;4130;48.740;9.132;2023-07-08T03:08:22;16.80;83.80
8178;DHT22;4130;48.740;9.132;2023-07-08T03:10:55;16.80;83.30
8178;DHT22;4130;48.740;9.132;2023-07-08T03:13:22;17.00;85.40
8178;DHT22;4130;48.740;9.132;2023-07-08T03:15:49;17.00;85.80
8178;DHT22;4130;48.740;9.132;2023-07-08T03:18:15;17.00;85.80
8178;DHT22;4130;48.740;9.132;2023-07-08T03:20:44;17.00;85.90
8178;DHT22;4130;48.740;9.132;2023-07-08T03:23:11;16.90;85.70
8178;DHT22;4130;48.740;9.132;2023-07-08T03:25:38;16.80;86.10
8178;DHT22;4130;48.740;9.132;2023-07-08T03:28:05;16.80;86.10
8178;DHT22;4130;48.740;9.132;2023-07-08T03:30:39;16.80;86.40
8178;DHT22;4130;48.740;9.132;2023-07-08T03:33:06;16.70;86.30
8178;DHT22;4130;48.740;9.132;2023-07-08T03:35:33;16.80;86.50
8178;DHT22;4130;48.740;9.132;2023-07-08T03:38:01;16.70;87.00
8178;DHT22;4130;48.740;9.132;2023-07-08T03:40:28;16.70;86.90
8178;DHT22;4130;48.740;9.132;2023-07-08T03:42:55;16.60;86.90
8178;DHT22;4130;48.740;9.132;2023-07-08T03:45:21;16.60;87.50
8178;DHT22;4130;48.740;9.132;2023-07-08T03:47:48;16.50;87.90
8178;DHT22;4130;48.740;9.132;2023-07-08T03:50:18;16.50;88.00
8178;DHT22;4130;48.740;9.132;2023-07-08T03:52:45;16.40;87.70
8178;DHT22;4130;48.740;9.132;2023-07-08T03:55:14;16.40;87.70
8178;DHT22;4130;48.740;9.132;2023-07-08T03:57:41;16.40;87.80
8178;DHT22;4130;48.740;9.132;2023-07-08T04:00:08;16.40;88.30
8178;DHT22;4130;48.740;9.132;2023-07-08T04:02:37;16.30;88.30
8178;DHT22;4130;48.740;9.132;2023-07-08T04:05:05;16.20;88.00
8178;DHT22;4130;48.740;9.132;2023-07-08T04:07:33;16.30;87.80
8178;DHT22;4130;48.740;9.132;2023-07-08T04:09:59;16.30;87.90
8178;DHT22;4130;48.740;9.132;2023-07-08T04:12:28;16.40;88.10
8178;DHT22;4130;48.740;9.132;2023-07-08T04:14:55;16.40;88.10
8178;DHT22;4130;48.740;9.132;2023-07-08T04:17:21;16.50;88.40
8178;DHT22;4130;48.740;9.132;2023-07-08T04:19:49;16.50;88.30
8178;DHT22;4130;48.740;9.132;2023-07-08T04:22:16;16.60;89.20
8178;DHT22;4130;48.740;9.132;2023-07-08T04:24:43;16.80;89.50
8178;DHT22;4130;48.740;9.132;2023-07-08T04:27:12;16.80;89.10
8178;DHT22;4130;48.740;9.132;2023-07-08T04:29:42;17.00;88.90
8178;DHT22;4130;48.740;9.132;2023-07-08T04:32:09;17.20;88.40
8178;DHT22;4130;48.740;9.132;2023-07-08T04:34:36;17.30;88.50
8178;DHT22;4130;48.740;9.132;2023-07-08T04:37:03;17.40;88.10
8178;DHT22;4130;48.740;9.132;2023-07-08T04:39:31;17.50;88.00
8178;DHT22;4130;48.740;9.132;2023-07-08T04:41:58;17.70;88.20
8178;DHT22;4130;48.740;9.132;2023-07-08T04:44:25;17.80;88.90
8178;DHT22;4130;48.740;9.132;2023-07-08T04:46:56;18.00;88.50
8178;DHT22;4130;48.740;9.132;2023-07-08T04:49:23;18.20;88.60
8178;DHT22;4130;48.740;9.132;2023-07-08T04:51:57;18.40;87.40
8178;DHT22;4130;48.740;9.132;2023-07-08T04:54:23;18.60;85.70
8178;DHT22;4130;48.740;9.132;2023-07-08T04:56:50;18.80;85.70
8178;DHT22;4130;48.740;9.132;2023-07-08T04:59:20;19.00;84.20
8178;DHT22;4130;48.740;9.132;2023-07-08T05:01:47;19.10;84.50
8178;DHT22;4130;48.740;9.132;2023-07-08T05:04:17;19.20;84.20
8178;DHT22;4130;48.740;9.132;2023-07-08T05:06:44;19.20;84.20
8178;DHT22;4130;48.740;9.132;2023-07-08T05:09:11;19.10;84.70
8178;DHT22;4130;48.740;9.132;2023-07-08T05:11:38;19.10;85.60
8178;DHT22;4130;48.740;9.132;2023-07-08T05:14:05;19.00;86.10
8178;DHT22;4130;48.740;9.132;2023-07-08T05:16:34;19.00;87.40
8178;DHT22;4130;48.740;9.132;2023-07-08T05:19:01;19.10;85.60
8178;DHT22;4130;48.740;9.132;2023-07-08T05:21:30;19.10;86.50
8178;DHT22;4130;48.740;9.132;2023-07-08T05:23:59;19.30;86.60
8178;DHT22;4130;48.740;9.132;2023-07-08T05:26:25;19.60;86.40
8178;DHT22;4130;48.740;9.132;2023-07-08T05:28:52;19.90;85.00
8178;DHT22;4130;48.740;9.132;2023-07-08T05:31:19;20.20;84.40
8178;DHT22;4130;48.740;9.132;2023-07-08T05:33:45;20.40;83.10
8178;DHT22;4130;48.740;9.132;2023-07-08T05:36:12;20.60;82.50
8178;DHT22;4130;48.740;9.132;2023-07-08T05:38:40;20.80;81.60
8178;DHT22;4130;48.740;9.132;2023-07-08T05:41:07;21.00;80.80
8178;DHT22;4130;48.740;9.132;2023-07-08T05:43:34;21.10;80.30
8178;DHT22;4130;48.740;9.132;2023-07-08T05:46:01;21.20;79.40
8178;DHT22;4130;48.740;9.132;2023-07-08T05:48:28;21.30;79.30
8178;DHT22;4130;48.740;9.132;2023-07-08T05:50:56;21.30;79.20
8178;DHT22;4130;48.740;9.132;2023-07-08T05:53:23;21.40;79.10
8178;DHT22;4130;48.740;9.132;2023-07-08T05:55:51;21.40;78.80
8178;DHT22;4130;48.740;9.132;2023-07-08T05:58:18;21.40;78.70
8178;DHT22;4130;48.740;9.132;2023-07-08T06:00:45;21.50;79.10
8178;DHT22;4130;48.740;9.132;2023-07-08T06:03:12;21.60;78.90
8178;DHT22;4130;48.740;9.132;2023-07-08T06:05:39;21.50;78.70
8178;DHT22;4130;48.740;9.132;2023-07-08T06:08:06;21.40;78.50
8178;DHT22;4130;48.740;9.132;2023-07-08T06:10:33;21.40;78.60
8178;DHT22;4130;48.740;9.132;2023-07-08T06:13:01;21.40;78.90
8178;DHT22;4130;48.740;9.132;2023-07-08T06:15:28;21.50;79.30
8178;DHT22;4130;48.740;9.132;2023-07-08T06:17:55;21.50;79.20
8178;DHT22;4130;48.740;9.132;2023-07-08T06:20:26;21.60;79.50
8178;DHT22;4130;48.740;9.132;2023-07-08T06:22:53;21.70;79.10
8178;DHT22;4130;48.740;9.132;2023-07-08T06:25:20;21.90;79.60
8178;DHT22;4130;48.740;9.132;2023-07-08T06:27:47;22.10;79.40
8178;DHT22;4130;48.740;9.132;2023-07-08T06:30:15;22.20;79.10
8178;DHT22;4130;48.740;9.132;2023-07-08T06:32:41;22.40;78.90
8178;DHT22;4130;48.740;9.132;2023-07-08T06:35:08;22.60;79.10
8178;DHT22;4130;48.740;9.132;2023-07-08T06:37:35;22.70;79.80
8178;DHT22;4130;48.740;9.132;2023-07-08T06:40:02;22.70;80.30
8178;DHT22;4130;48.740;9.132;2023-07-08T06:42:29;22.80;80.10
8178;DHT22;4130;48.740;9.132;2023-07-08T06:44:56;22.90;80.50
8178;DHT22;4130;48.740;9.132;2023-07-08T06:47:24;23.00;80.00
8178;DHT22;4130;48.740;9.132;2023-07-08T06:49:51;23.20;80.50
8178;DHT22;4130;48.740;9.132;2023-07-08T06:52:17;23.40;80.10
8178;DHT22;4130;48.740;9.132;2023-07-08T06:54:44;23.70;79.40
8178;DHT22;4130;48.740;9.132;2023-07-08T06:57:11;24.00;78.30
8178;DHT22;4130;48.740;9.132;2023-07-08T06:59:38;24.20;78.40
8178;DHT22;4130;48.740;9.132;2023-07-08T07:02:05;24.40;78.50
8178;DHT22;4130;48.740;9.132;2023-07-08T07:04:33;24.40;78.00
8178;DHT22;4130;48.740;9.132;2023-07-08T07:07:01;24.40;77.90
8178;DHT22;4130;48.740;9.132;2023-07-08T07:09:27;24.40;78.70
8178;DHT22;4130;48.740;9.132;2023-07-08T07:11:54;24.40;78.30
8178;DHT22;4130;48.740;9.132;2023-07-08T07:14:21;24.30;78.00
8178;DHT22;4130;48.740;9.132;2023-07-08T07:16:48;24.20;78.20
8178;DHT22;4130;48.740;9.132;2023-07-08T07:19:14;24.10;78.30
8178;DHT22;4130;48.740;9.132;2023-07-08T07:21:42;24.10;79.10
8178;DHT22;4130;48.740;9.132;2023-07-08T07:24:09;24.10;79.10
8178;DHT22;4130;48.740;9.132;2023-07-08T07:26:37;24.00;78.70
8178;DHT22;4130;48.740;9.132;2023-07-08T07:29:04;24.10;79.10
8178;DHT22;4130;48.740;9.132;2023-07-08T07:31:31;24.20;79.10
8178;DHT22;4130;48.740;9.132;2023-07-08T07:33:59;24.20;79.20
8178;DHT22;4130;48.740;9.132;2023-07-08T07:36:26;24.30;79.50
8178;DHT22;4130;48.740;9.132;2023-07-08T07:38:54;24.30;79.30
8178;DHT22;4130;48.740;9.132;2023-07-08T07:41:21;24.50;79.80
8178;DHT22;4130;48.740;9.132;2023-07-08T07:43:48;24.40;79.00
8178;DHT22;4130;48.740;9.132;2023-07-08T07:46:15;24.50;80.20
8178;DHT22;4130;48.740;9.132;2023-07-08T07:48:42;24.60;80.00
8178;DHT22;4130;48.740;9.132;2023-07-08T07:51:08;24.70;79.50
8178;DHT22;4130;48.740;9.132;2023-07-08T07:53:36;24.80;79.70
8178;DHT22;4130;48.740;9.132;2023-07-08T07:56:11;25.00;79.70
8178;DHT22;4130;48.740;9.132;2023-07-08T07:58:38;25.50;79.40
8178;DHT22;4130;48.740;9.132;2023-07-08T08:01:04;25.80;78.80
8178;DHT22;4130;48.740;9.132;2023-07-08T08:03:39;26.20;78.00
8178;DHT22;4130;48.740;9.132;2023-07-08T08:06:05;26.40;78.60
8178;DHT22;4130;48.740;9.132;2023-07-08T08:08:32;26.50;79.00
8178;DHT22;4130;48.740;9.132;2023-07-08T08:10:59;26.60;78.10
8178;DHT22;4130;48.740;9.132;2023-07-08T08:13:27;26.60;77.90
8178;DHT22;4130;48.740;9.132;2023-07-08T08:15:57;26.60;77.00
8178;DHT22;4130;48.740;9.132;2023-07-08T08:18:24;26.60;77.20
8178;DHT22;4130;48.740;9.132;2023-07-08T08:20:51;26.80;77.70
8178;DHT22;4130;48.740;9.132;2023-07-08T08:23:18;27.00;78.00
8178;DHT22;4130;48.740;9.132;2023-07-08T08:25:44;27.10;76.00
8178;DHT22;4130;48.740;9.132;2023-07-08T08:28:11;27.10;75.90
8178;DHT22;4130;48.740;9.132;2023-07-08T08:30:41;27.20;76.40
8178;DHT22;4130;48.740;9.132;2023-07-08T08:33:11;27.30;77.30
8178;DHT22;4130;48.740;9.132;2023-07-08T08:35:38;27.90;74.70
8178;DHT22;4130;48.740;9.132;2023-07-08T08:38:05;28.40;74.50
8178;DHT22;4130;48.740;9.132;2023-07-08T08:40:32;28.40;74.10
8178;DHT22;4130;48.740;9.132;2023-07-08T08:43:02;28.10;74.40
8178;DHT22;4130;48.740;9.132;2023-07-08T08:45:41;27.70;75.20
8178;DHT22;4130;48.740;9.132;2023-07-08T08:48:13;27.60;74.40
8178;DHT22;4130;48.740;9.132;2023-07-08T08:50:46;27.50;74.50
8178;DHT22;4130;48.740;9.132;2023-07-08T08:53:16;27.40;74.60
8178;DHT22;4130;48.740;9.132;2023-07-08T08:55:44;27.40;76.30
8178;DHT22;4130;48.740;9.132;2023-07-08T08:58:23;27.70;75.20
8178;DHT22;4130;48.740;9.132;2023-07-08T09:00:55;28.20;73.60
8178;DHT22;4130;48.740;9.132;2023-07-08T09:03:45;28.90;73.40
8178;DHT22;4130;48.740;9.132;2023-07-08T09:06:16;30.00;71.30
8178;DHT22;4130;48.740;9.132;2023-07-08T09:08:44;31.00;70.70
8178;DHT22;4130;48.740;9.132;2023-07-08T09:11:20;31.80;69.40
8178;DHT22;4130;48.740;9.132;2023-07-08T09:13:49;32.50;69.30
8178;DHT22;4130;48.740;9.132;2023-07-08T09:16:24;33.10;66.00
8178;DHT22;4130;48.740;9.132;2023-07-08T09:18:58;33.00;66.20
8178;DHT22;4130;48.740;9.132;2023-07-08T09:21:30;32.80;66.00
8178;DHT22;4130;48.740;9.132;2023-07-08T09:24:03;32.20;65.50
8178;DHT22;4130;48.740;9.132;2023-07-08T09:26:30;31.30;66.80
8178;DHT22;4130;48.740;9.132;2023-07-08T09:28:58;30.80;67.60
8178;DHT22;4130;48.740;9.132;2023-07-08T09:31:26;30.30;69.10
8178;DHT22;4130;48.740;9.132;2023-07-08T09:34:06;30.30;69.30
8178;DHT22;4130;48.740;9.132;2023-07-08T09:36:33;30.10;68.60
8178;DHT22;4130;48.740;9.132;2023-07-08T09:39:00;30.20;68.90
8178;DHT22;4130;48.740;9.132;2023-07-08T09:41:30;30.70;68.60
8178;DHT22;4130;48.740;9.132;2023-07-08T09:44:14;31.40;67.90
8178;DHT22;4130;48.740;9.132;2023-07-08T09:46:41;31.70;68.00
8178;DHT22;4130;48.740;9.132;2023-07-08T09:49:22;32.00;67.60
8178;DHT22;4130;48.740;9.132;2023-07-08T09:51:50;32.30;65.80
8178;DHT22;4130;48.740;9.132;2023-07-08T09:54:18;33.20;67.10
8178;DHT22;4130;48.740;9.132;2023-07-08T09:56:58;33.70;65.70
8178;DHT22;4130;48.740;9.132;2023-07-08T09:59:30;34.10;64.50
8178;DHT22;4130;48.740;9.132;2023-07-08T10:02:00;34.40;65.60
8178;DHT22;4130;48.740;9.132;2023-07-08T10:04:30;33.90;65.40
8178;DHT22;4130;48.740;9.132;2023-07-08T10:06:56;33.70;65.30
8178;DHT22;4130;48.740;9.132;2023-07-08T10:09:25;33.00;65.60
8178;DHT22;4130;48.740;9.132;2023-07-08T10:11:56;32.10;65.80
8178;DHT22;4130;48.740;9.132;2023-07-08T10:14:27;31.40;66.40
8178;DHT22;4130;48.740;9.132;2023-07-08T10:16:55;30.80;67.50
8178;DHT22;4130;48.740;9.132;2023-07-08T10:19:22;30.10;68.70
8178;DHT22;4130;48.740;9.132;2023-07-08T10:21:55;29.50;69.20
8178;DHT22;4130;48.740;9.132;2023-07-08T10:24:37;29.50;70.90
8178;DHT22;4130;48.740;9.132;2023-07-08T10:27:14;29.80;70.20
8178;DHT22;4130;48.740;9.132;2023-07-08T10:29:50;30.60;70.50
8178;DHT22;4130;48.740;9.132;2023-07-08T10:32:32;31.10;69.30
8178;DHT22;4130;48.740;9.132;2023-07-08T10:35:12;31.60;69.20
8178;DHT22;4130;48.740;9.132;2023-07-08T10:37:50;32.50;67.10
8178;DHT22;4130;48.740;9.132;2023-07-08T10:40:28;33.20;67.30
8178;DHT22;4130;48.740;9.132;2023-07-08T10:43:25;33.50;66.10
8178;DHT22;4130;48.740;9.132;2023-07-08T10:46:00;33.90;66.50
8178;DHT22;4130;48.740;9.132;2023-07-08T10:48:45;34.10;64.60
8178;DHT22;4130;48.740;9.132;2023-07-08T10:51:22;33.80;64.70
8178;DHT22;4130;48.740;9.132;2023-07-08T10:54:10;33.90;65.90
8178;DHT22;4130;48.740;9.132;2023-07-08T10:56:46;34.30;65.60
8178;DHT22;4130;48.740;9.132;2023-07-08T10:59:24;33.90;64.00
8178;DHT22;4130;48.740;9.132;2023-07-08T11:02:09;33.90;64.60
8178;DHT22;4130;48.740;9.132;2023-07-08T11:04:48;33.50;64.60
8178;DHT22;4130;48.740;9.132;2023-07-08T11:07:28;33.40;64.70
8178;DHT22;4130;48.740;9.132;2023-07-08T11:10:02;33.50;64.70
8178;DHT22;4130;48.740;9.132;2023-07-08T11:12:33;33.40;64.20
8178;DHT22;4130;48.740;9.132;2023-07-08T11:15:08;33.30;65.40
8178;DHT22;4130;48.740;9.132;2023-07-08T11:17:43;32.90;65.30
8178;DHT22;4130;48.740;9.132;2023-07-08T11:20:16;32.90;66.60
8178;DHT22;4130;48.740;9.132;2023-07-08T11:22:48;32.50;65.40
8178;DHT22;4130;48.740;9.132;2023-07-08T11:25:19;31.90;65.90
8178;DHT22;4130;48.740;9.132;2023-07-08T11:27:50;32.10;67.00
8178;DHT22;4130;48.740;9.132;2023-07-08T11:30:21;31.90;66.60
8178;DHT22;4130;48.740;9.132;2023-07-08T11:32:57;31.90;67.40
8178;DHT22;4130;48.740;9.132;2023-07-08T11:35:38;32.50;67.20
8178;DHT22;4130;48.740;9.132;2023-07-08T11:38:08;33.00;65.60
8178;DHT22;4130;48.740;9.132;2023-07-08T11:40:50;33.00;65.30
8178;DHT22;4130;48.740;9.132;2023-07-08T11:43:19;33.40;65.60
8178;DHT22;4130;48.740;9.132;2023-07-08T11:45:49;33.90;65.20
8178;DHT22;4130;48.740;9.132;2023-07-08T11:48:18;34.20;63.90
8178;DHT22;4130;48.740;9.132;2023-07-08T11:50:47;33.90;65.00
8178;DHT22;4130;48.740;9.132;2023-07-08T11:53:32;34.00;63.60
8178;DHT22;4130;48.740;9.132;2023-07-08T11:56:02;34.10;64.20
8178;DHT22;4130;48.740;9.132;2023-07-08T11:58:32;34.40;64.40
8178;DHT22;4130;48.740;9.132;2023-07-08T12:01:00;34.70;62.90
8178;DHT22;4130;48.740;9.132;2023-07-08T12:03:35;34.60;63.20
8178;DHT22;4130;48.740;9.132;2023-07-08T12:06:42;34.80;64.20
8178;DHT22;4130;48.740;9.132;2023-07-08T12:09:22;35.10;62.50
8178;DHT22;4130;48.740;9.132;2023-07-08T12:11:54;35.10;61.40
8178;DHT22;4130;48.740;9.132;2023-07-08T12:14:22;35.30;62.50
8178;DHT22;4130;48.740;9.132;2023-07-08T12:16:49;35.60;61.70
8178;DHT22;4130;48.740;9.132;2023-07-08T12:19:18;35.60;60.70
8178;DHT22;4130;48.740;9.132;2023-07-08T12:21:46;35.50;61.50
8178;DHT22;4130;48.740;9.132;2023-07-08T12:24:14;35.50;61.60
8178;DHT22;4130;48.740;9.132;2023-07-08T12:26:42;35.50;61.50
8178;DHT22;4130;48.740;9.132;2023-07-08T12:29:11;35.60;61.10
8178;DHT22;4130;48.740;9.132;2023-07-08T12:31:39;35.80;61.30
8178;DHT22;4130;48.740;9.132;2023-07-08T12:34:11;36.00;61.00
8178;DHT22;4130;48.740;9.132;2023-07-08T12:36:39;36.00;61.10
8178;DHT22;4130;48.740;9.132;2023-07-08T12:39:10;35.80;59.60
8178;DHT22;4130;48.740;9.132;2023-07-08T12:41:37;36.00;58.80
8178;DHT22;4130;48.740;9.132;2023-07-08T12:44:14;35.60;59.90
8178;DHT22;4130;48.740;9.132;2023-07-08T12:46:41;35.90;59.60
8178;DHT22;4130;48.740;9.132;2023-07-08T12:49:08;36.20;59.60
8178;DHT22;4130;48.740;9.132;2023-07-08T12:51:35;36.70;60.00
8178;DHT22;4130;48.740;9.132;2023-07-08T12:54:02;36.90;59.40
8178;DHT22;4130;48.740;9.132;2023-07-08T12:56:29;36.30;56.80
8178;DHT22;4130;48.740;9.132;2023-07-08T12:58:57;35.80;58.60
8178;DHT22;4130;48.740;9.132;2023-07-08T13:01:29;36.00;59.30
8178;DHT22;4130;48.740;9.132;2023-07-08T13:03:59;36.20;60.00
8178;DHT22;4130;48.740;9.132;2023-07-08T13:06:29;36.30;59.50
8178;DHT22;4130;48.740;9.132;2023-07-08T13:09:00;36.70;59.20
8178;DHT22;4130;48.740;9.132;2023-07-08T13:11:32;36.60;58.00
8178;DHT22;4130;48.740;9.132;2023-07-08T13:14:00;36.70;57.20
8178;DHT22;4130;48.740;9.132;2023-07-08T13:16:32;36.80;58.20
8178;DHT22;4130;48.740;9.132;2023-07-08T13:19:00;36.50;58.50
8178;DHT22;4130;48.740;9.132;2023-07-08T13:21:28;35.60;57.70
8178;DHT22;4130;48.740;9.132;2023-07-08T13:23:56;35.00;59.30
8178;DHT22;4130;48.740;9.132;2023-07-08T13:26:26;34.50;59.60
8178;DHT22;4130;48.740;9.132;2023-07-08T13:28:59;34.00;59.60
8178;DHT22;4130;48.740;9.132;2023-07-08T13:31:34;33.60;60.40
8178;DHT22;4130;48.740;9.132;2023-07-08T13:34:06;33.50;61.00
8178;DHT22;4130;48.740;9.132;2023-07-08T13:36:38;33.30;60.20
8178;DHT22;4130;48.740;9.132;2023-07-08T13:39:07;33.10;59.70
8178;DHT22;4130;48.740;9.132;2023-07-08T13:41:35;33.00;60.80
8178;DHT22;4130;48.740;9.132;2023-07-08T13:44:06;32.90;59.70
8178;DHT22;4130;48.740;9.132;2023-07-08T13:46:36;32.80;60.30
8178;DHT22;4130;48.740;9.132;2023-07-08T13:49:11;32.70;61.40
8178;DHT22;4130;48.740;9.132;2023-07-08T13:51:39;32.80;61.30
8178;DHT22;4130;48.740;9.132;2023-07-08T13:54:15;32.90;60.60
8178;DHT22;4130;48.740;9.132;2023-07-08T13:56:42;32.90;60.50
8178;DHT22;4130;48.740;9.132;2023-07-08T13:59:14;33.00;60.30
8178;DHT22;4130;48.740;9.132;2023-07-08T14:01:44;33.10;59.10
8178;DHT22;4130;48.740;9.132;2023-07-08T14:04:12;33.30;60.50
8178;DHT22;4130;48.740;9.132;2023-07-08T14:06:40;33.30;59.60
8178;DHT22;4130;48.740;9.132;2023-07-08T14:09:14;33.10;59.50
8178;DHT22;4130;48.740;9.132;2023-07-08T14:11:42;33.20;60.10
8178;DHT22;4130;48.740;9.132;2023-07-08T14:14:09;33.20;60.30
8178;DHT22;4130;48.740;9.132;2023-07-08T14:16:38;33.20;60.20
8178;DHT22;4130;48.740;9.132;2023-07-08T14:19:11;33.30;60.10
8178;DHT22;4130;48.740;9.132;2023-07-08T14:21:38;33.10;59.00
8178;DHT22;4130;48.740;9.132;2023-07-08T14:24:12;32.80;59.40
8178;DHT22;4130;48.740;9.132;2023-07-08T14:26:42;32.50;60.60
8178;DHT22;4130;48.740;9.132;2023-07-08T14:29:10;32.20;60.90
8178;DHT22;4130;48.740;9.132;2023-07-08T14:31:38;32.00;61.10
8178;DHT22;4130;48.740;9.132;2023-07-08T14:34:08;31.80;61.70
8178;DHT22;4130;48.740;9.132;2023-07-08T14:36:35;31.60;61.50
8178;DHT22;4130;48.740;9.132;2023-07-08T14:39:10;31.50;62.90
8178;DHT22;4130;48.740;9.132;2023-07-08T14:41:37;31.60;63.20
8178;DHT22;4130;48.740;9.132;2023-07-08T14:44:14;31.60;62.30
8178;DHT22;4130;48.740;9.132;2023-07-08T14:46:44;31.40;63.10
8178;DHT22;4130;48.740;9.132;2023-07-08T14:49:15;31.20;62.70
8178;DHT22;4130;48.740;9.132;2023-07-08T14:51:42;31.20;63.20
8178;DHT22;4130;48.740;9.132;2023-07-08T14:54:09;31.10;63.80
8178;DHT22;4130;48.740;9.132;2023-07-08T14:56:36;31.00;63.20
8178;DHT22;4130;48.740;9.132;2023-07-08T14:59:03;31.00;63.60
8178;DHT22;4130;48.740;9.132;2023-07-08T15:01:30;30.90;63.60
8178;DHT22;4130;48.740;9.132;2023-07-08T15:03:57;30.90;64.20
8178;DHT22;4130;48.740;9.132;2023-07-08T15:06:25;31.00;64.40
8178;DHT22;4130;48.740;9.132;2023-07-08T15:08:53;31.10;63.30
8178;DHT22;4130;48.740;9.132;2023-07-08T15:11:20;31.20;63.40
8178;DHT22;4130;48.740;9.132;2023-07-08T15:13:47;31.40;62.70
8178;DHT22;4130;48.740;9.132;2023-07-08T15:16:16;31.40;63.50
8178;DHT22;4130;48.740;9.132;2023-07-08T15:18:43;31.30;62.90
8178;DHT22;4130;48.740;9.132;2023-07-08T15:21:11;31.00;63.00
8178;DHT22;4130;48.740;9.132;2023-07-08T15:23:39;31.00;63.30
8178;DHT22;4130;48.740;9.132;2023-07-08T15:26:09;31.00;64.20
8178;DHT22;4130;48.740;9.132;2023-07-08T15:28:40;31.00;63.60
8178;DHT22;4130;48.740;9.132;2023-07-08T15:31:13;31.20;63.30
8178;DHT22;4130;48.740;9.132;2023-07-08T15:33:40;31.40;62.70
8178;DHT22;4130;48.740;9.132;2023-07-08T15:36:09;31.60;62.20
8178;DHT22;4130;48.740;9.132;2023-07-08T15:38:36;31.70;62.00
8178;DHT22;4130;48.740;9.132;2023-07-08T15:41:04;31.80;62.40
8178;DHT22;4130;48.740;9.132;2023-07-08T15:43:31;32.00;62.10
8178;DHT22;4130;48.740;9.132;2023-07-08T15:46:01;32.10;62.20
8178;DHT22;4130;48.740;9.132;2023-07-08T15:48:28;32.10;61.90
8178;DHT22;4130;48.740;9.132;2023-07-08T15:50:54;32.20;61.80
8178;DHT22;4130;48.740;9.132;2023-07-08T15:53:21;32.20;62.30
8178;DHT22;4130;48.740;9.132;2023-07-08T15:55:48;32.00;61.00
8178;DHT22;4130;48.740;9.132;2023-07-08T15:58:22;32.10;61.90
8178;DHT22;4130;48.740;9.132;2023-07-08T16:00:50;32.00;60.90
8178;DHT22;4130;48.740;9.132;2023-07-08T16:03:21;32.00;61.20
8178;DHT22;4130;48.740;9.132;2023-07-08T16:05:49;32.10;61.50
8178;DHT22;4130;48.740;9.132;2023-07-08T16:08:16;32.10;61.20
8178;DHT22;4130;48.740;9.132;2023-07-08T16:10:46;31.80;60.70
8178;DHT22;4130;48.740;9.132;2023-07-08T16:13:16;31.60;61.70
8178;DHT22;4130;48.740;9.132;2023-07-08T16:15:44;31.40;62.40